Time;durP1;ratioP1;P1;durP2;ratioP2;P2;SDS_P1;SDS_P2;PMS_P1;PMS_P2;Temp;Humidity;BMP_temperature;BMP_pressure;BME280_temperature;BME280_humidity;BME280_pressure;Samples;Min_cycle;Max_cycle;Signal;HPM_P1;HPM_P2
2023/02/13 00:02:42;;;;;;;;;44.50;36.00;;;;;7.82;62.42;102767.56;146605;581;46012;-77
2023/02/13 00:05:50;;;;;;;;;42.00;33.00;;;;;7.82;64.50;102777.88;146606;630;46010;-73
2023/02/13 00:08:48;;;;;;;;;30.25;26.25;;;;;7.74;63.31;102776.25;146604;572;46016;-74
2023/02/13 00:11:55;;;;;;;;;30.00;28.25;;;;;7.71;62.94;102780.22;146606;570;46020;-73
2023/02/13 00:15:06;;;;;;;;;;;;;;;;;;;;;
2023/02/13 00:18:14;;;;;;;;;26.75;23.00;;;;;7.74;62.21;102785.66;146605;633;47010;-76
2023/02/13 00:21:20;;;;;;;;;31.25;28.75;;;;;7.77;62.44;102785.97;146601;606;47917;-74
2023/02/13 00:24:18;;;;;;;;;22.25;20.50;;;;;7.78;61.94;102792.94;146606;619;46021;-78
2023/02/13 00:27:24;;;;;;;;;28.25;25.00;;;;;7.78;62.01;102788.66;146604;709;46917;-77
2023/02/13 00:30:26;;;;;;;;;48.75;39.25;;;;;7.81;61.76;102796.72;146609;628;47011;-75
2023/02/13 00:33:33;;;;;;;;;38.25;32.00;;;;;7.84;61.27;102796.09;146606;591;46016;-76
2023/02/13 00:36:54;;;;;;;;;36.50;32.75;;;;;7.86;61.56;102786.84;146605;589;47020;-75
2023/02/13 00:40:03;;;;;;;;;41.75;33.50;;;;;7.87;62.33;102799.87;146604;601;46014;-74
2023/02/13 00:43:20;;;;;;;;;44.50;34.50;;;;;7.85;62.21;102801.44;146606;665;46020;-74
2023/02/13 00:46:14;;;;;;;;;29.25;25.75;;;;;7.82;61.20;102800.22;146602;663;46017;-73
2023/02/13 00:49:17;;;;;;;;;30.25;27.75;;;;;7.79;60.94;102802.53;146607;579;46010;-73
2023/02/13 00:52:19;;;;;;;;;33.75;28.25;;;;;7.81;61.26;102803.56;146595;625;48012;-74
2023/02/13 00:55:27;;;;;;;;;30.75;25.00;;;;;7.85;61.32;102805.69;146607;570;46020;-73
2023/02/13 00:58:30;;;;;;;;;27.00;25.00;;;;;7.84;61.82;102811.59;146604;638;45016;-74
2023/02/13 01:01:31;;;;;;;;;31.75;26.50;;;;;7.77;61.62;102809.19;146607;594;46010;-73
2023/02/13 01:04:29;;;;;;;;;23.50;21.00;;;;;7.71;61.60;102800.88;146606;638;46012;-74
2023/02/13 01:07:30;;;;;;;;;32.00;28.75;;;;;7.65;61.87;102793.44;146607;636;46021;-74
2023/02/13 01:10:50;;;;;;;;;32.75;28.75;;;;;7.64;62.56;102802.84;146604;595;46016;-75
2023/02/13 01:13:59;;;;;;;;;22.75;21.00;;;;;5.69;64.69;102483.00;146605;644;46010;-75
2023/02/13 01:17:01;;;;;;;;;32.00;26.75;;;;;7.46;64.04;102820.81;146605;600;46016;-74
2023/02/13 01:20:01;;;;;;;;;23.00;19.50;;;;;7.40;64.38;102829.78;146607;568;46010;-74
2023/02/13 01:23:13;;;;;;;;;;;;;;;;;;;;;
2023/02/13 01:26:35;;;;;;;;;8.00;7.25;;;;;7.69;65.32;102829.09;146608;600;46020;-74
2023/02/13 01:29:45;;;;;;;;;12.75;10.00;;;;;7.92;64.99;102820.09;146604;602;46018;-74
2023/02/13 01:33:09;;;;;;;;;10.75;7.75;;;;;6.05;64.83;102469.41;146607;590;46010;-74
2023/02/13 01:36:45;;;;;;;;;9.00;8.00;;;;;6.23;63.79;102481.44;146603;573;46012;-76
2023/02/13 01:40:05;;;;;;;;;7.00;5.75;;;;;8.15;62.26;102818.00;146607;618;46020;-73
2023/02/13 01:43:22;;;;;;;;;12.50;10.75;;;;;8.20;65.29;102837.44;146605;574;46016;-72
2023/02/13 01:46:26;;;;;;;;;5.00;5.00;;;;;8.13;64.30;102835.06;146605;651;46020;-73
2023/02/13 01:49:32;;;;;;;;;6.50;5.50;;;;;8.13;63.85;102835.06;146605;616;46016;-71
2023/02/13 01:52:27;;;;;;;;;7.25;6.00;;;;;8.16;65.06;102844.75;146609;581;45030;-69
2023/02/13 01:55:30;;;;;;;;;8.50;7.25;;;;;8.11;65.71;102862.41;146607;608;46012;-72
2023/02/13 01:58:54;;;;;;;;;5.00;4.25;;;;;8.06;63.16;102851.62;146606;592;46020;-69
2023/02/13 02:02:00;;;;;;;;;;;;;;;;;;;;;
2023/02/13 02:05:11;;;;;;;;;5.00;5.00;;;;;8.05;64.60;102839.47;146609;634;46010;-71
2023/02/13 02:08:41;;;;;;;;;5.50;5.00;;;;;6.36;63.45;102535.09;146608;594;45017;-71
2023/02/13 02:12:15;;;;;;;;;;;;;;;;;;;;;
2023/02/13 02:15:26;;;;;;;;;;;;;;;;;;;;;
2023/02/13 02:18:30;;;;;;;;;2.25;1.00;;;;;8.16;62.86;102832.75;146606;617;46020;-72
2023/02/13 02:22:19;;;;;;;;;0.00;0.00;;;;;6.42;63.53;102525.37;146601;656;46915;-71
2023/02/13 02:25:55;;;;;;;;;1.00;1.00;;;;;6.34;63.27;102534.94;146606;569;46010;-71
2023/02/13 02:29:45;;;;;;;;;1.00;1.00;;;;;6.03;63.16;102515.59;146606;666;46016;-71
2023/02/13 02:33:15;;;;;;;;;1.75;1.00;;;;;7.90;63.87;102852.59;146606;597;46020;-70
2023/02/13 02:36:44;;;;;;;;;4.75;4.50;;;;;7.89;64.18;102851.69;146606;651;46016;-70
2023/02/13 02:40:36;;;;;;;;;2.00;2.00;;;;;6.18;63.74;102545.41;146608;567;47010;-71
2023/02/13 02:44:14;;;;;;;;;0.00;0.00;;;;;6.07;64.38;102546.00;146605;589;46016;-72
2023/02/13 02:51:44;;;;;;;;;2.00;2.00;;;;;7.69;66.83;102866.94;146604;582;46012;-73
2023/02/13 02:55:20;;;;;;;;;2.00;1.75;;;;;7.62;66.44;102860.28;146608;578;46010;-74
2023/02/13 03:24:31;;;;;;;;;7.50;5.00;;;;;5.83;65.51;102575.37;146608;569;46020;-71
2023/02/13 03:32:05;;;;;;;;;16.00;13.00;;;;;5.79;66.15;102568.09;146596;669;47917;-70
2023/02/13 03:39:27;;;;;;;;;17.00;15.25;;;;;6.80;66.92;102773.09;146605;582;46020;-68
2023/02/13 03:42:45;;;;;;;;;19.50;17.75;;;;;7.60;67.45;102923.75;146606;609;46012;-69
2023/02/13 03:46:08;;;;;;;;;;;;;;;;;;;;;
2023/02/13 03:53:17;;;;;;;;;11.75;10.00;;;;;7.44;68.74;102928.16;146607;567;46012;-72
2023/02/13 03:59:37;;;;;;;;;13.50;12.75;;;;;7.40;69.86;102937.28;146614;599;46010;-72
2023/02/13 04:02:58;;;;;;;;;9.00;7.00;;;;;5.38;69.29;102585.44;146609;593;46016;-72
2023/02/13 04:06:17;;;;;;;;;8.50;7.25;;;;;5.54;68.42;102613.63;146613;632;46021;-75
2023/02/13 04:09:13;;;;;;;;;6.25;6.25;;;;;7.39;71.41;102953.53;146610;581;46016;-73
2023/02/13 04:12:40;;;;;;;;;2.75;2.50;;;;;7.33;69.70;102958.09;146613;565;46020;-73
2023/02/13 04:16:04;;;;;;;;;4.00;4.00;;;;;7.25;70.36;102962.47;146612;591;46012;-78
2023/02/13 04:19:13;;;;;;;;;5.50;4.25;;;;;7.17;71.35;102953.06;146612;569;46010;-77
2023/02/13 04:22:23;;;;;;;;;5.25;4.50;;;;;7.16;72.00;102957.31;146615;645;46012;-75
2023/02/13 04:25:30;;;;;;;;;4.75;4.00;;;;;7.18;71.76;102971.25;146616;575;46020;-75
2023/02/13 04:28:35;;;;;;;;;6.00;6.00;;;;;7.16;71.81;102964.12;146611;624;46016;-75
2023/02/13 04:31:33;;;;;;;;;44.25;34.50;;;;;7.16;72.72;102975.37;146615;583;46010;-75
2023/02/13 04:34:51;;;;;;;;;;;;;;;;;;;;;
2023/02/13 04:37:59;;;;;;;;;13.75;13.00;;;;;7.11;74.14;102980.81;146613;591;45021;-73
2023/02/13 04:41:02;;;;;;;;;15.75;13.75;;;;;7.09;73.90;102977.16;146611;612;46016;-75
2023/02/13 04:44:07;;;;;;;;;13.25;12.00;;;;;7.07;73.41;102988.97;146615;599;46012;-75
2023/02/13 04:47:11;;;;;;;;;14.00;11.00;;;;;7.05;73.30;102990.53;146613;670;46012;-75
2023/02/13 04:50:29;;;;;;;;;11.50;10.25;;;;;7.04;72.30;102980.94;146611;565;47021;-75
2023/02/13 04:53:48;;;;;;;;;15.75;14.50;;;;;5.15;74.82;102647.37;146609;576;46016;-75
2023/02/13 04:56:54;;;;;;;;;11.00;10.50;;;;;6.94;76.05;102992.91;146614;633;46008;-74
2023/02/13 05:00:00;;;;;;;;;17.50;13.00;;;;;6.84;74.38;102996.97;146610;581;46012;-74
2023/02/13 05:02:56;;;;;;;;;12.75;12.00;;;;;6.82;75.27;103002.00;146614;633;46020;-73
2023/02/13 05:06:07;;;;;;;;;16.00;12.25;;;;;6.83;74.48;103006.37;146612;633;46012;-72
2023/02/13 05:09:26;;;;;;;;;11.50;10.50;;;;;6.83;74.51;103010.63;146612;583;46020;-73
2023/02/13 05:12:34;;;;;;;;;25.50;22.25;;;;;6.84;75.14;103008.19;146612;611;46015;-72
2023/02/13 05:15:36;;;;;;;;;19.25;15.00;;;;;6.85;74.94;103014.25;146615;602;46010;-73
2023/02/13 05:18:39;;;;;;;;;16.50;12.50;;;;;6.84;74.70;103023.66;146608;569;46016;-73
2023/02/13 05:25:04;;;;;;;;;50.75;39.50;;;;;5.00;73.46;102672.41;146607;667;46016;-74
2023/02/13 05:31:39;;;;;;;;;23.00;20.75;;;;;6.96;74.41;103038.59;146610;614;46012;-73
2023/02/13 05:35:15;;;;;;;;;18.00;16.75;;;;;6.91;73.24;103049.31;146612;613;46020;-72
2023/02/13 05:38:11;;;;;;;;;16.50;12.50;;;;;6.90;74.25;103044.94;146611;647;46012;-72
2023/02/13 05:41:23;;;;;;;;;11.00;11.00;;;;;6.87;75.21;103038.56;146613;602;46020;-73
2023/02/13 05:44:28;;;;;;;;;15.75;12.25;;;;;6.80;74.73;103025.78;146609;615;46016;-74
2023/02/13 05:47:21;;;;;;;;;12.75;11.75;;;;;6.76;75.53;103031.34;146613;671;46020;-74
2023/02/13 05:50:25;;;;;;;;;11.00;10.00;;;;;6.72;76.02;103027.56;146611;586;46016;-72
2023/02/13 05:53:21;;;;;;;;;20.75;16.75;;;;;6.72;77.67;103043.03;146614;587;46010;-77
2023/02/13 05:56:16;;;;;;;;;10.50;9.75;;;;;5.79;77.61;102898.53;146610;588;46012;-76
2023/02/13 05:59:17;;;;;;;;;12.75;11.75;;;;;6.58;75.74;103053.59;146614;596;46010;-78
2023/02/13 06:02:21;;;;;;;;;18.00;15.75;;;;;6.58;76.89;103051.91;146613;605;46014;-76
2023/02/13 06:05:28;;;;;;;;;16.00;14.00;;;;;6.58;76.04;103046.75;146615;654;46010;-76
2023/02/13 06:08:25;;;;;;;;;17.50;14.25;;;;;6.60;75.94;103046.91;146611;602;46014;-76
2023/02/13 06:11:21;;;;;;;;;17.00;16.00;;;;;6.65;76.50;103053.47;146612;623;46020;-77
2023/02/13 06:14:41;;;;;;;;;18.75;15.50;;;;;5.03;75.96;102765.28;146613;577;46012;-76
2023/02/13 06:17:48;;;;;;;;;21.75;18.50;;;;;6.63;77.27;103058.44;146615;630;46010;-76
2023/02/13 06:20:47;;;;;;;;;14.75;13.00;;;;;6.60;77.15;103062.38;146610;609;46017;-76
2023/02/13 06:23:39;;;;;;;;;15.00;13.00;;;;;6.55;76.50;103067.06;146613;609;46012;-77
2023/02/13 06:27:00;;;;;;;;;22.50;17.25;;;;;6.54;76.00;103072.97;146613;626;46012;-71
2023/02/13 06:30:17;;;;;;;;;17.75;15.25;;;;;4.96;74.65;102797.91;146613;566;46010;-72
2023/02/13 06:33:32;;;;;;;;;19.50;18.75;;;;;6.56;76.46;103065.41;146611;608;46013;-72
2023/02/13 06:36:41;;;;;;;;;;;;;;;;;;;;;
2023/02/13 06:39:46;;;;;;;;;22.25;21.50;;;;;6.56;76.71;103065.41;146608;566;46017;-73
2023/02/13 06:43:19;;;;;;;;;22.50;20.50;;;;;5.64;75.64;102899.50;146615;591;46010;-73
2023/02/13 06:46:15;;;;;;;;;13.75;12.25;;;;;6.60;77.04;103067.53;146611;564;46014;-72
2023/02/13 06:49:25;;;;;;;;;21.00;19.75;;;;;6.56;77.81;103078.28;146615;629;46010;-74
2023/02/13 06:52:39;;;;;;;;;;;;;;;;;;;;;
2023/02/13 06:55:32;;;;;;;;;43.50;35.00;;;;;6.61;77.79;103082.28;146614;578;46011;-75
2023/02/13 06:58:30;;;;;;;;;38.25;33.00;;;;;6.65;77.07;103075.00;146609;723;46031;-76
2023/02/13 07:01:34;;;;;;;;;76.75;55.50;;;;;6.67;76.90;103070.03;146607;577;46020;-77
2023/02/13 07:04:50;;;;;;;;;47.75;38.75;;;;;5.76;75.64;102899.84;146605;616;46016;-77
2023/02/13 07:07:51;;;;;;;;;23.25;22.00;;;;;6.75;77.22;103082.03;146605;759;46010;-75
2023/02/13 07:11:01;;;;;;;;;16.75;16.50;;;;;6.72;78.45;103082.62;146605;667;46014;-75
2023/02/13 07:14:09;;;;;;;;;25.50;20.25;;;;;6.68;76.92;103084.72;146605;605;46020;-77
2023/02/13 07:17:25;;;;;;;;;39.50;33.50;;;;;6.68;75.74;103082.16;146603;572;46016;-78
2023/02/13 07:20:30;;;;;;;;;81.33;69.67;;;;;6.76;76.39;103086.44;146606;626;46010;-77
2023/02/13 07:23:28;;;;;;;;;123.50;109.75;;;;;6.76;76.42;103081.28;146615;592;46012;-73
2023/02/13 07:26:40;;;;;;;;;57.00;45.50;;;;;6.87;77.30;103087.56;146610;677;46020;-73
2023/02/13 07:29:50;;;;;;;;;43.00;35.25;;;;;6.95;77.88;103102.16;146603;666;46016;-74
2023/02/13 07:32:59;;;;;;;;;;;;;;;;;;;;;
2023/02/13 07:36:01;;;;;;;;;30.50;25.50;;;;;7.12;77.64;103096.16;146604;569;46012;-75
2023/02/13 07:39:05;;;;;;;;;57.75;44.50;;;;;7.19;77.25;103098.59;146606;581;46010;-75
2023/02/13 07:42:32;;;;;;;;;53.50;42.00;;;;;7.24;75.77;103094.84;146605;574;46016;-73
2023/02/13 07:45:37;;;;;;;;;58.00;45.00;;;;;7.31;76.17;103105.03;146604;564;46020;-76
2023/02/13 07:48:35;;;;;;;;;51.50;41.00;;;;;7.38;76.18;103112.66;146607;618;46012;-76
2023/02/13 07:51:32;;;;;;;;;42.75;31.25;;;;;7.44;76.24;103116.59;146607;580;46012;-72
2023/02/13 07:54:33;;;;;;;;;31.50;26.00;;;;;7.45;76.54;103116.78;146604;593;46012;-72
2023/02/13 07:57:30;;;;;;;;;28.25;22.75;;;;;7.43;75.53;103123.44;146606;720;46020;-71
2023/02/13 08:00:35;;;;;;;;;29.25;25.50;;;;;7.45;76.09;103116.78;146604;580;46012;-70
2023/02/13 08:03:28;;;;;;;;;55.50;44.00;;;;;7.51;76.22;103119.06;146606;613;46021;-72
2023/02/13 08:06:22;;;;;;;;;45.00;34.50;;;;;7.54;76.04;103122.88;146604;602;47012;-72
2023/02/13 08:12:38;;;;;;;;;41.25;32.50;;;;;7.58;75.33;103122.41;146606;582;46012;-73
2023/02/13 08:15:33;;;;;;;;;25.00;23.00;;;;;7.62;75.78;103123.62;146607;634;47028;-78
2023/02/13 08:18:25;;;;;;;;;25.75;23.50;;;;;7.68;75.08;103119.09;146604;681;46918;-74
2023/02/13 08:21:40;;;;;;;;;;;;;;;;;;;;;
2023/02/13 08:24:53;;;;;;;;;39.00;31.00;;;;;7.90;74.34;103113.50;146604;640;47012;-76
2023/02/13 08:28:00;;;;;;;;;43.25;35.25;;;;;8.02;74.95;103118.22;146607;620;46032;-74
2023/02/13 08:31:03;;;;;;;;;49.50;35.50;;;;;8.14;74.43;103115.03;146605;753;46017;-74
2023/02/13 08:34:05;;;;;;;;;48.00;34.50;;;;;8.22;74.06;103109.84;146607;631;45020;-74
2023/02/13 08:37:08;;;;;;;;;52.25;41.50;;;;;8.34;73.79;103104.97;146607;573;46014;-74
2023/02/13 08:40:21;;;;;;;;;;;;;;;;;;;;;
2023/02/13 08:43:16;;;;;;;;;52.00;40.00;;;;;8.54;72.27;103106.97;146604;573;46016;-73
2023/02/13 08:46:17;;;;;;;;;53.75;43.00;;;;;8.58;71.15;103116.84;146605;605;46011;-72
2023/02/13 08:49:12;;;;;;;;;50.00;42.25;;;;;8.54;71.19;103107.87;146605;582;46012;-71
2023/02/13 08:52:25;;;;;;;;;44.00;34.75;;;;;8.49;69.61;103111.69;146608;575;46010;-73
2023/02/13 08:55:32;;;;;;;;;;;;;;;;;;;;;
2023/02/13 08:58:35;;;;;;;;;57.00;44.50;;;;;8.58;70.02;103113.34;146607;569;46020;-73
2023/02/13 09:01:28;;;;;;;;;55.00;44.25;;;;;8.67;70.64;103116.84;146611;720;46012;-74
2023/02/13 09:04:39;;;;;;;;;66.75;51.00;;;;;6.84;69.55;102775.19;146615;589;46010;-74
2023/02/13 09:07:35;;;;;;;;;59.75;47.50;;;;;8.78;68.67;103108.44;146609;588;46016;-75
2023/02/13 09:10:42;;;;;;;;;;;;;;;;;;;;;
2023/02/13 09:13:47;;;;;;;;;62.75;49.75;;;;;8.92;69.41;103115.84;146608;564;46016;-74
2023/02/13 09:16:45;;;;;;;;;66.00;50.75;;;;;9.00;69.86;103111.41;146613;599;46020;-73
2023/02/13 09:19:51;;;;;;;;;70.50;52.50;;;;;9.10;69.79;103116.72;146611;579;46014;-74
2023/02/13 09:22:53;;;;;;;;;62.50;48.50;;;;;9.19;69.06;103112.41;146609;583;46020;-75
2023/02/13 09:25:48;;;;;;;;;58.00;45.25;;;;;9.29;69.50;103113.28;146613;575;46012;-73
2023/02/13 09:28:45;;;;;;;;;61.00;48.25;;;;;9.37;67.62;103112.31;146614;569;46012;-72
2023/02/13 09:32:05;;;;;;;;;64.00;49.00;;;;;7.71;65.90;102795.69;146613;622;46014;-72
2023/02/13 09:35:09;;;;;;;;;65.75;49.00;;;;;9.46;66.87;103089.84;146612;607;46020;-73
2023/02/13 09:38:17;;;;;;;;;63.50;49.00;;;;;9.55;66.60;103090.72;146611;588;46017;-73
2023/02/13 09:41:31;;;;;;;;;44.25;35.25;;;;;9.62;64.71;103093.09;146615;595;46020;-73
2023/02/13 09:44:50;;;;;;;;;34.25;31.00;;;;;9.64;62.97;103088.97;146609;569;46017;-74
2023/02/13 09:48:05;;;;;;;;;38.25;34.25;;;;;9.64;62.04;103091.56;146608;612;46020;-73
2023/02/13 09:51:05;;;;;;;;;39.50;32.50;;;;;9.68;61.13;103078.13;146609;625;46017;-72
2023/02/13 09:54:30;;;;;;;;;50.75;40.25;;;;;9.68;62.94;103080.72;146615;604;46011;-71
2023/02/13 09:57:41;;;;;;;;;49.00;37.75;;;;;9.61;64.30;103072.25;146612;563;46014;-71
2023/02/13 10:00:52;;;;;;;;;51.25;42.25;;;;;8.05;65.18;102799.81;146607;599;46021;-72
2023/02/13 10:04:40;;;;;;;;;59.25;45.00;;;;;8.39;64.67;102855.62;146605;586;46014;-73
2023/02/13 10:08:12;;;;;;;;;52.25;42.25;;;;;9.71;65.25;103068.03;146606;573;46021;-72
2023/02/13 10:11:46;;;;;;;;;55.75;40.00;;;;;9.79;64.14;103086.00;146604;604;46025;-73
2023/02/13 10:15:14;;;;;;;;;50.75;36.75;;;;;9.81;62.41;103067.25;146607;602;46010;-73
2023/02/13 10:18:41;;;;;;;;;38.25;32.25;;;;;9.75;61.99;103055.38;146604;591;46016;-72
2023/02/13 10:22:04;;;;;;;;;28.25;26.50;;;;;9.74;62.06;103059.66;146603;578;46021;-71
2023/02/13 10:25:40;;;;;;;;;21.50;21.25;;;;;8.26;62.43;102790.59;146607;662;46012;-72
2023/02/13 10:36:35;;;;;;;;;27.00;24.75;;;;;9.56;63.91;103042.41;146604;619;46020;-74
2023/02/13 10:39:37;;;;;;;;;24.25;19.75;;;;;9.58;64.67;103036.59;146604;569;46016;-72
2023/02/13 10:43:06;;;;;;;;;25.50;24.00;;;;;9.61;63.88;103031.72;146608;563;46012;-72
2023/02/13 10:46:42;;;;;;;;;29.50;25.25;;;;;7.97;63.85;102741.34;146604;590;46017;-72
2023/02/13 10:50:29;;;;;;;;;37.25;32.25;;;;;9.53;64.04;103032.69;146606;583;46020;-72
2023/02/13 10:54:10;;;;;;;;;43.25;34.25;;;;;9.46;64.40;103020.84;146602;581;46016;-72
2023/02/13 10:57:40;;;;;;;;;32.50;29.75;;;;;9.42;64.11;103020.44;146606;616;46010;-72
2023/02/13 11:01:22;;;;;;;;;37.75;32.00;;;;;9.41;64.91;103022.13;146610;610;46013;-73
2023/02/13 11:04:49;;;;;;;;;35.00;31.75;;;;;9.44;65.09;103012.03;146612;582;46020;-72
2023/02/13 11:07:43;;;;;;;;;29.50;28.25;;;;;9.45;64.88;103003.50;146609;573;46014;-72
2023/02/13 11:10:49;;;;;;;;;43.00;35.75;;;;;9.48;65.46;103000.28;146615;604;46010;-73
2023/02/13 11:14:11;;;;;;;;;33.25;29.75;;;;;9.52;66.38;103004.97;146612;571;46014;-73
2023/02/13 11:17:36;;;;;;;;;33.75;30.00;;;;;9.57;66.38;103001.12;146614;572;46022;-72
2023/02/13 11:21:11;;;;;;;;;;;;;;;;;;;;;
2023/02/13 11:24:26;;;;;;;;;44.75;38.00;;;;;9.69;65.53;102999.66;146613;616;46020;-72
2023/02/13 11:27:27;;;;;;;;;38.75;34.00;;;;;9.70;64.55;102991.09;146610;566;46915;-73
2023/02/13 11:31:14;;;;;;;;;44.25;35.00;;;;;8.01;63.79;102687.53;146615;573;46011;-72
2023/02/13 11:34:44;;;;;;;;;42.75;35.00;;;;;8.23;63.70;102716.25;146609;566;46016;-72
2023/02/13 11:37:56;;;;;;;;;44.50;35.50;;;;;9.71;63.62;102973.88;146613;585;46008;-72
2023/02/13 11:41:16;;;;;;;;;37.50;32.25;;;;;8.12;63.32;102695.34;146613;589;46012;-73
2023/02/13 11:44:39;;;;;;;;;32.75;31.25;;;;;9.59;64.67;102973.66;146614;618;46021;-73
2023/02/13 11:47:49;;;;;;;;;27.00;23.75;;;;;9.48;65.06;102972.69;146611;584;47012;-72
2023/02/13 11:51:23;;;;;;;;;29.75;26.25;;;;;7.56;64.87;102643.72;146613;592;46013;-72
2023/02/13 11:54:50;;;;;;;;;36.25;32.75;;;;;7.51;65.00;102669.88;146610;622;46016;-72
2023/02/13 11:58:20;;;;;;;;;41.25;34.75;;;;;9.08;66.00;102962.94;146613;580;46021;-72
2023/02/13 12:01:49;;;;;;;;;41.75;34.75;;;;;8.99;65.75;102952.63;146621;613;46012;-72
2023/02/13 12:05:00;;;;;;;;;41.00;33.25;;;;;8.95;66.35;102954.81;146627;614;45010;-72
2023/02/13 12:07:58;;;;;;;;;37.50;30.75;;;;;8.91;66.43;102952.69;146627;585;45017;-72
2023/02/13 12:11:01;;;;;;;;;56.00;43.25;;;;;8.90;66.64;102948.28;146627;603;45020;-71
2023/02/13 12:14:22;;;;;;;;;57.25;43.50;;;;;8.87;66.73;102946.31;146620;577;47917;-71
2023/02/13 12:17:30;;;;;;;;;44.75;33.25;;;;;8.87;65.89;102945.41;146629;577;45031;-73
2023/02/13 12:20:56;;;;;;;;;43.50;34.50;;;;;8.13;66.59;102816.03;146624;605;46915;-72
2023/02/13 12:24:48;;;;;;;;;34.50;31.25;;;;;6.53;65.46;102521.25;146627;599;45020;-71
2023/02/13 12:28:33;;;;;;;;;44.50;34.25;;;;;9.00;65.90;102935.44;146626;647;46012;-72
2023/02/13 12:32:17;;;;;;;;;48.75;37.25;;;;;7.35;65.50;102621.03;146628;569;45010;-73
2023/02/13 12:35:59;;;;;;;;;47.00;36.25;;;;;9.16;65.46;102924.84;146628;639;46012;-73
2023/02/13 12:39:27;;;;;;;;;49.50;40.00;;;;;7.59;65.74;102620.78;146625;643;45020;-72
2023/02/13 12:43:10;;;;;;;;;42.75;35.00;;;;;7.58;65.60;102587.09;146626;566;46015;-72
2023/02/13 12:46:41;;;;;;;;;44.00;36.00;;;;;8.63;65.03;102743.22;146627;617;45020;-74
2023/02/13 12:50:28;;;;;;;;;;;;;;;;;;;;;
2023/02/13 12:53:57;;;;;;;;;48.75;38.75;;;;;9.94;64.68;102913.78;146628;599;45010;-71
2023/02/13 12:57:34;;;;;;;;;51.75;40.25;;;;;9.89;63.89;102902.06;146625;570;45016;-72
2023/02/13 13:01:13;;;;;;;;;55.50;42.50;;;;;9.84;64.34;102900.75;146607;617;46020;-73
2023/02/13 13:05:05;;;;;;;;;59.50;45.50;;;;;9.79;64.19;102899.44;146603;624;46913;-72
2023/02/13 13:08:44;;;;;;;;;57.75;43.75;;;;;7.97;63.75;102588.91;146607;571;46010;-72
2023/02/13 13:12:20;;;;;;;;;62.50;47.25;;;;;9.67;64.18;102892.38;146604;571;46016;-72
2023/02/13 13:15:52;;;;;;;;;57.25;45.00;;;;;7.92;64.60;102582.44;146604;586;46020;-72
2023/02/13 13:19:30;;;;;;;;;57.25;44.00;;;;;8.01;64.15;102616.87;146606;596;46014;-73
2023/02/13 13:22:57;;;;;;;;;51.50;41.50;;;;;8.47;65.11;102688.28;146606;617;46010;-73
2023/02/13 13:26:49;;;;;;;;;58.75;47.50;;;;;7.76;64.88;102575.87;146603;600;46919;-72
2023/02/13 13:30:09;;;;;;;;;54.75;43.75;;;;;7.52;65.57;102545.22;146606;632;46021;-72
2023/02/13 13:33:55;;;;;;;;;60.25;46.50;;;;;7.63;65.73;102581.59;146602;569;46016;-73
2023/02/13 13:37:43;;;;;;;;;66.50;51.25;;;;;9.13;66.77;102868.53;146607;585;46020;-72
2023/02/13 13:41:39;;;;;;;;;;;;;;;;;;;;;
2023/02/13 13:45:24;;;;;;;;;54.25;43.00;;;;;7.31;66.99;102559.59;146606;592;46020;-73
2023/02/13 13:49:11;;;;;;;;;55.75;44.50;;;;;7.25;67.14;102548.72;146604;582;46012;-73
2023/02/13 13:52:36;;;;;;;;;50.25;40.25;;;;;8.93;67.35;102845.97;146606;633;46010;-74
2023/02/13 13:56:08;;;;;;;;;50.50;41.00;;;;;7.22;67.37;102545.84;146604;569;46014;-73
2023/02/13 13:59:05;;;;;;;;;50.50;40.50;;;;;9.03;68.16;102852.91;146608;655;46020;-73
2023/02/13 14:02:45;;;;;;;;;48.25;39.00;;;;;8.40;66.96;102701.41;146605;647;46012;-73
2023/02/13 14:06:04;;;;;;;;;51.00;41.25;;;;;9.33;66.81;102843.53;146606;594;46021;-73
2023/02/13 14:09:33;;;;;;;;;62.75;47.75;;;;;9.30;67.37;102844.16;146602;611;46016;-73
2023/02/13 14:12:49;;;;;;;;;59.00;46.50;;;;;9.41;67.20;102839.97;146608;630;45041;-73
2023/02/13 14:16:10;;;;;;;;;44.75;35.50;;;;;9.68;66.30;102828.53;146604;723;46014;-73
2023/02/13 14:19:47;;;;;;;;;50.00;40.25;;;;;9.88;65.95;102840.66;146604;597;46010;-72
2023/02/13 14:22:51;;;;;;;;;44.75;35.50;;;;;10.02;65.23;102839.28;146605;581;46917;-72
2023/02/13 14:25:52;;;;;;;;;52.00;42.25;;;;;10.17;64.83;102831.13;146608;564;46013;-71
2023/02/13 14:29:27;;;;;;;;;51.75;40.75;;;;;8.86;63.36;102586.59;146603;696;46029;-72
2023/02/13 14:32:41;;;;;;;;;53.50;42.25;;;;;10.26;63.27;102825.88;146607;568;46020;-73
2023/02/13 14:36:03;;;;;;;;;55.75;43.75;;;;;10.30;63.27;102822.75;146605;673;46017;-73
2023/02/13 14:39:34;;;;;;;;;60.00;48.25;;;;;8.73;62.47;102538.97;146606;574;46010;-72
2023/02/13 14:42:49;;;;;;;;;80.00;67.00;;;;;8.72;62.87;102537.16;146603;584;46017;-72
2023/02/13 14:46:03;;;;;;;;;55.75;42.75;;;;;10.34;62.17;102823.91;146605;604;46020;-72
2023/02/13 14:49:43;;;;;;;;;57.25;46.25;;;;;10.33;62.59;102819.53;146604;640;46028;-73
2023/02/13 14:53:01;;;;;;;;;63.00;49.50;;;;;10.28;62.57;102815.63;146609;566;45020;-73
2023/02/13 14:56:14;;;;;;;;;65.75;51.25;;;;;10.20;62.12;102825.31;146601;628;46016;-72
2023/02/13 14:59:36;;;;;;;;;62.25;48.00;;;;;8.34;62.00;102506.19;146605;632;46010;-73
2023/02/13 15:02:47;;;;;;;;;54.50;42.50;;;;;10.10;62.55;102817.53;146604;628;46018;-72
2023/02/13 15:05:45;;;;;;;;;53.50;42.25;;;;;10.10;63.11;102820.13;146607;590;46012;-72
2023/02/13 15:08:51;;;;;;;;;53.00;41.25;;;;;10.04;62.65;102815.31;146603;575;46016;-72
2023/02/13 15:12:07;;;;;;;;;51.75;40.75;;;;;9.93;62.77;102814.34;146607;653;46021;-72
2023/02/13 15:15:37;;;;;;;;;54.75;45.00;;;;;9.78;63.46;102800.09;146601;596;47919;-72
2023/02/13 15:18:41;;;;;;;;;54.75;43.00;;;;;9.85;63.12;102814.50;146606;574;46012;-73
2023/02/13 15:21:50;;;;;;;;;47.75;38.00;;;;;9.79;62.53;102819.13;146605;589;46016;-74
2023/02/13 15:24:55;;;;;;;;;38.75;32.50;;;;;9.68;62.42;102824.25;146605;586;46020;-71
2023/02/13 15:27:48;;;;;;;;;50.25;40.00;;;;;9.56;63.28;102825.75;146604;644;46016;-73
2023/02/13 15:30:54;;;;;;;;;;;;;;;;;;;;;
2023/02/13 15:33:57;;;;;;;;;48.75;38.75;;;;;9.40;63.27;102820.91;146603;564;46916;-71
2023/02/13 15:36:49;;;;;;;;;49.50;40.00;;;;;9.30;63.39;102812.19;146605;598;46020;-71
2023/02/13 15:39:47;;;;;;;;;56.00;44.00;;;;;9.26;63.71;102818.78;146604;593;46017;-73
2023/02/13 15:43:03;;;;;;;;;68.00;50.25;;;;;7.53;64.00;102521.19;146606;570;46021;-72
2023/02/13 15:46:22;;;;;;;;;57.00;45.75;;;;;9.18;64.02;102819.75;146602;604;46016;-72
2023/02/13 15:49:39;;;;;;;;;58.00;46.50;;;;;9.06;65.30;102810.88;146603;665;46021;-72
2023/02/13 15:52:52;;;;;;;;;61.50;46.75;;;;;7.11;65.92;102489.00;146602;600;46016;-74
2023/02/13 15:56:18;;;;;;;;;55.25;45.50;;;;;6.55;65.56;102416.66;146604;567;46021;-72
2023/02/13 15:59:30;;;;;;;;;72.75;57.25;;;;;8.73;65.73;102822.56;146602;638;46913;-72
2023/02/13 16:03:16;;;;;;;;;66.75;51.75;;;;;8.05;65.82;102733.53;146605;615;46021;-71
2023/02/13 16:06:38;;;;;;;;;74.00;58.33;;;;;8.56;65.95;102827.06;146606;599;46012;-72
2023/02/13 16:09:52;;;;;;;;;;;;;;;;;;;;;
2023/02/13 16:13:16;;;;;;;;;65.50;51.50;;;;;8.32;67.02;102842.88;146604;564;46017;-72
2023/02/13 16:16:37;;;;;;;;;62.50;49.00;;;;;8.16;66.83;102837.00;146604;596;46020;-72
2023/02/13 16:20:07;;;;;;;;;64.00;49.50;;;;;6.48;66.53;102565.53;146606;597;46012;-72
2023/02/13 16:23:38;;;;;;;;;74.33;58.33;;;;;7.92;67.36;102833.91;146609;563;46010;-72
2023/02/13 16:26:51;;;;;;;;;95.67;89.67;;;;;7.85;67.47;102847.00;146607;754;46016;-72
2023/02/13 16:30:00;;;;;;;;;72.50;54.25;;;;;7.76;68.34;102841.88;146611;573;46020;-71
2023/02/13 16:33:37;;;;;;;;;70.00;54.75;;;;;6.05;67.68;102557.84;146605;619;46016;-72
2023/02/13 16:36:33;;;;;;;;;73.50;56.75;;;;;7.56;68.60;102842.50;146604;672;46020;-72